SBOSBO SOU / EGHI
Speedbird OnlineSpeedbird Online SOU / EGHI

Southampton Airport
23:39 7.9°C

Location Southampton, United Kingdom
Latitude: 50.95029830932617
Longitude: -1.3567999601364136
Local Time 23:39 on 27 Feb 2024
UTC 0 hours (Europe/London)
METAR EGHI 272120Z 20003KT 170V240 9999 BKN025 08/06 Q1020
TAF
Weather As Of 27 Feb 2024 23:39
Description Overcast clouds
Wind 5 km/h from West (278°)
Cloud Cover 98%
Precipitation Rain: none, Snow: none
Sunrise 06:55
Sunset 17:41
NOTAM 10 active NOTAM
Rotations During the last 90 days there were
15 flights from CMF
7 flights from EDI
2 flights from EGC
2 flights from LCY
1 flights from GVA
1 flights from
17 flights to CMF
6 flights to EDI
2 flights to EGC
1 flights to GVA
1 flights to LCY
Web Airport Website | Wikipedia
Codes IATA: SOU
ICAO: EGHI
Altitude 13 Meter / 44 Feet
Distance 121 KM / 75 Miles
from London.
Runways
RunwayLength (m)Surface
021723Asphalt
201723Asphalt
Radio
TypeDescriptionFrequency
APPAPP128.85
ATISATIS113.35
GNDGND121.775
OPSOPS130.65
TWRTWR118.2
Live ATC



Support Speedbird Online

© 2017-2024 Speedbird Online